Accueil
METAR-TAF:

METAR-TAF

Aéroports :

Base aérienne 279 Châteaudun

Châteaudun, France

latitude: 48-03N, longitude: 001-23E, altitude: 134 m

Observation

Le bulletin a été fait il y a 11 minutes, à 17:30 UTC
Vent 12 kt de ouest/sud-ouest
Température 21°C
Humidité 56%
Pression 1014 hPa
Visibilité 10 km ou plus
pas de nuages en-dessous de 1500 mètres et pas de cumulonimbus.

METAR: LFOC 281730Z AUTO 24012KT CAVOK 21/12 Q1014

Heure: 19:41 (17:41 UTC)

Prévision

Le bulletin a été fait il y a 3 heures et 41 minutes, à 14:00 UTC
Prévision valable du 28 à 15 UTC au 29 à 15 UTC
Vent 18 kt de ouest/sud-ouest
Visibilité 10 km ou plus
Nuages fragmentés à une hauteur de 4500 ft
Evoluant progressivement
du 28 à 20 UTC au 28 à 22 UTC
Vent 5 kt de sud-ouest
Temporairement
du 29 à 00 UTC au 29 à 06 UTC
Visibilité: 3000 m
brume

TAF: LFOC 281400Z 2815/2915 24018KT 9999 BKN045 BECMG 2820/2822 23005KT TEMPO 2900/2906 3000 BR

Observations et prévisions météorologiques de plus de 4000 aéroports (messages METAR et TAF).

Les stations disponibles sont représentées par des disques jaunes et rouges sur la carte.

Passer la souris dessus pour voir le nom de la station.

Cliquer dessus pour voir les observations et prévisions météorologiques.

Pour changer de carte: cliquez sur les boutons verts avec une croix noire pour zoomer, sur le bouton vert avec un tiret pour effectuer un zoom arrière, ou sur les flèches vertes pour les cartes adjacentes.


METAR-TAF: